SKK69 FKYS-FGSL
Flight info
| Callsign | SKK69 |
|---|---|
| Flight time | 0h 33m |
| Altitude | 24000 |
| Route | UMUSO1Q UMUSO R874 DLA EBROT1B |
| Aircraft | B738/M-SDE2E3FGHIRWXY/LB1 |
Departure
| Time | 2026-04-20 17:57 |
|---|---|
| Airport | Yaoundé Nsimalen International Airport (FKYS) |
Arrival
| Time | 2026-04-20 18:30 |
|---|---|
| Airport | Malabo International Airport (FGSL) |
| Time | Latitude | Longitude | Altitude | Speed | Heading |
|---|---|---|---|---|---|
| 2026-04-20 17:31 | 3.71485 | 11.54871 | 2280 ft | 0 kts | 216° |
| 2026-04-20 17:47 | 3.71501 | 11.54885 | 2252 ft | 4 kts | 248° |
| 2026-04-20 17:47 | 3.71500 | 11.54900 | 2244 ft | 4 kts | 332° |
| 2026-04-20 17:48 | 3.71481 | 11.54912 | 2245 ft | 4 kts | 275° |
| 2026-04-20 17:48 | 3.71486 | 11.54917 | 2246 ft | 4 kts | 225° |
| 2026-04-20 17:48 | 3.71499 | 11.54940 | 2243 ft | 4 kts | 252° |
| 2026-04-20 17:48 | 3.71507 | 11.54956 | 2243 ft | 2 kts | 189° |
| 2026-04-20 17:49 | 3.71508 | 11.54956 | 2243 ft | 0 kts | 189° |
| 2026-04-20 17:51 | 3.71494 | 11.54954 | 2243 ft | 4 kts | 188° |
| 2026-04-20 17:52 | 3.71456 | 11.54948 | 2241 ft | 7 kts | 190° |
| 2026-04-20 17:52 | 3.71395 | 11.54937 | 2240 ft | 9 kts | 189° |
| 2026-04-20 17:52 | 3.71331 | 11.54954 | 2240 ft | 11 kts | 130° |
| 2026-04-20 17:52 | 3.71308 | 11.55028 | 2240 ft | 12 kts | 101° |
| 2026-04-20 17:53 | 3.71294 | 11.55110 | 2240 ft | 11 kts | 103° |
| 2026-04-20 17:53 | 3.71242 | 11.55154 | 2240 ft | 11 kts | 175° |
| 2026-04-20 17:53 | 3.71163 | 11.55146 | 2240 ft | 12 kts | 188° |
| 2026-04-20 17:53 | 3.71074 | 11.55131 | 2239 ft | 14 kts | 189° |
| 2026-04-20 17:54 | 3.70975 | 11.55114 | 2238 ft | 15 kts | 189° |
| 2026-04-20 17:54 | 3.70871 | 11.55096 | 2238 ft | 16 kts | 187° |
| 2026-04-20 17:54 | 3.70783 | 11.55057 | 2237 ft | 5 kts | 199° |
| 2026-04-20 17:54 | 3.70761 | 11.55066 | 2236 ft | 1 kts | 98° |
| 2026-04-20 17:55 | 3.70772 | 11.55075 | 2236 ft | 3 kts | 27° |
| 2026-04-20 17:55 | 3.70792 | 11.55080 | 2237 ft | 0 kts | 11° |
| 2026-04-20 17:56 | 3.70809 | 11.55083 | 2237 ft | 12 kts | 9° |
| 2026-04-20 17:56 | 3.71124 | 11.55135 | 2240 ft | 80 kts | 9° |
| 2026-04-20 17:56 | 3.71878 | 11.55266 | 2239 ft | 138 kts | 9° |
| 2026-04-20 17:56 | 3.72967 | 11.55453 | 2352 ft | 175 kts | 10° |
| 2026-04-20 17:57 | 3.74245 | 11.55677 | 2681 ft | 198 kts | 11° |
| 2026-04-20 17:57 | 3.75648 | 11.55897 | 3173 ft | 206 kts | 9° |
| 2026-04-20 17:57 | 3.77069 | 11.56055 | 3837 ft | 204 kts | 6° |
| 2026-04-20 17:57 | 3.78512 | 11.56009 | 4389 ft | 215 kts | 351° |
| 2026-04-20 17:58 | 3.79964 | 11.55482 | 4739 ft | 233 kts | 332° |
| 2026-04-20 17:58 | 3.81349 | 11.54471 | 4798 ft | 266 kts | 316° |
| 2026-04-20 17:58 | 3.82293 | 11.52822 | 5078 ft | 285 kts | 280° |
| 2026-04-20 17:58 | 3.82292 | 11.50836 | 5733 ft | 289 kts | 264° |
| 2026-04-20 17:59 | 3.82090 | 11.48816 | 6424 ft | 293 kts | 262° |
| 2026-04-20 17:59 | 3.81866 | 11.46769 | 7066 ft | 299 kts | 263° |
| 2026-04-20 17:59 | 3.81643 | 11.44681 | 7740 ft | 305 kts | 263° |
| 2026-04-20 17:59 | 3.81424 | 11.42544 | 8373 ft | 313 kts | 264° |
| 2026-04-20 18:00 | 3.81210 | 11.40357 | 9068 ft | 318 kts | 264° |
| 2026-04-20 18:00 | 3.81000 | 11.38132 | 9801 ft | 323 kts | 264° |
| 2026-04-20 18:00 | 3.80791 | 11.35852 | 10272 ft | 339 kts | 264° |
| 2026-04-20 18:00 | 3.80570 | 11.33415 | 10442 ft | 363 kts | 264° |
| 2026-04-20 18:01 | 3.80338 | 11.30827 | 10692 ft | 381 kts | 264° |
| 2026-04-20 18:01 | 3.80101 | 11.28155 | 11204 ft | 388 kts | 264° |
| 2026-04-20 18:01 | 3.79853 | 11.25447 | 11780 ft | 395 kts | 264° |
| 2026-04-20 18:01 | 3.79591 | 11.22683 | 12299 ft | 402 kts | 264° |
| 2026-04-20 18:02 | 3.79543 | 11.19874 | 12861 ft | 407 kts | 278° |
| 2026-04-20 18:02 | 3.80356 | 11.17171 | 13505 ft | 407 kts | 298° |
| 2026-04-20 18:02 | 3.81978 | 11.14874 | 14111 ft | 404 kts | 318° |
| 2026-04-20 18:02 | 3.84224 | 11.13233 | 14733 ft | 399 kts | 337° |
| 2026-04-20 18:03 | 3.86826 | 11.12379 | 15446 ft | 392 kts | 349° |
| 2026-04-20 18:03 | 3.89316 | 11.11339 | 16103 ft | 400 kts | 327° |
| 2026-04-20 18:03 | 3.91272 | 11.09287 | 16718 ft | 409 kts | 302° |
| 2026-04-20 18:03 | 3.92274 | 11.06611 | 17302 ft | 416 kts | 279° |
| 2026-04-20 18:04 | 3.92174 | 11.03726 | 17880 ft | 419 kts | 255° |
| 2026-04-20 18:04 | 3.90998 | 11.01116 | 18403 ft | 419 kts | 232° |
| 2026-04-20 18:04 | 3.88901 | 10.99123 | 18888 ft | 417 kts | 210° |
| 2026-04-20 18:04 | 3.86421 | 10.97637 | 19430 ft | 418 kts | 217° |
| 2026-04-20 18:05 | 3.83129 | 10.92814 | 19812 ft | 433 kts | 243° |
| 2026-04-20 18:05 | 3.81679 | 10.90133 | 19812 ft | 443 kts | 238° |
| 2026-04-20 18:05 | 3.80010 | 10.87507 | 19818 ft | 451 kts | 235° |
| 2026-04-20 18:06 | 3.78242 | 10.84882 | 19803 ft | 459 kts | 237° |
| 2026-04-20 18:06 | 3.76837 | 10.81990 | 19797 ft | 466 kts | 251° |
| 2026-04-20 18:06 | 3.76129 | 10.78805 | 19809 ft | 472 kts | 264° |
| 2026-04-20 18:06 | 3.76109 | 10.75512 | 19810 ft | 475 kts | 273° |
| 2026-04-20 18:07 | 3.76239 | 10.73332 | 19807 ft | 474 kts | 274° |
| 2026-04-20 18:07 | 3.76442 | 10.70047 | 19791 ft | 472 kts | 274° |
| 2026-04-20 18:07 | 3.76635 | 10.66764 | 19785 ft | 472 kts | 273° |
| 2026-04-20 18:07 | 3.76813 | 10.63484 | 19787 ft | 472 kts | 273° |
| 2026-04-20 18:08 | 3.76976 | 10.60207 | 19789 ft | 472 kts | 272° |
| 2026-04-20 18:08 | 3.77130 | 10.56927 | 19781 ft | 472 kts | 272° |
| 2026-04-20 18:08 | 3.77280 | 10.53645 | 19786 ft | 472 kts | 272° |
| 2026-04-20 18:08 | 3.77428 | 10.50359 | 19787 ft | 473 kts | 272° |
| 2026-04-20 18:09 | 3.77577 | 10.47067 | 19791 ft | 474 kts | 272° |
| 2026-04-20 18:09 | 3.77727 | 10.43771 | 19787 ft | 475 kts | 272° |
| 2026-04-20 18:09 | 3.77877 | 10.40469 | 19783 ft | 475 kts | 272° |
| 2026-04-20 18:09 | 3.78028 | 10.37168 | 19782 ft | 474 kts | 272° |
| 2026-04-20 18:10 | 3.78179 | 10.33869 | 19786 ft | 474 kts | 272° |
| 2026-04-20 18:10 | 3.78330 | 10.30570 | 19779 ft | 475 kts | 272° |
| 2026-04-20 18:10 | 3.78482 | 10.27268 | 19786 ft | 474 kts | 272° |
| 2026-04-20 18:10 | 3.78631 | 10.24015 | 19783 ft | 474 kts | 272° |
| 2026-04-20 18:11 | 3.78781 | 10.20722 | 19781 ft | 473 kts | 272° |
| 2026-04-20 18:11 | 3.78942 | 10.17434 | 19784 ft | 472 kts | 274° |
| 2026-04-20 18:11 | 3.79444 | 10.14198 | 19778 ft | 471 kts | 284° |
| 2026-04-20 18:11 | 3.80431 | 10.11082 | 19786 ft | 469 kts | 292° |
| 2026-04-20 18:12 | 3.81858 | 10.08152 | 19789 ft | 468 kts | 298° |
| 2026-04-20 18:12 | 3.83380 | 10.05276 | 19780 ft | 467 kts | 298° |
| 2026-04-20 18:12 | 3.84903 | 10.02404 | 19776 ft | 467 kts | 298° |
| 2026-04-20 18:12 | 3.86417 | 9.99520 | 19766 ft | 466 kts | 298° |
| 2026-04-20 18:13 | 3.87895 | 9.96675 | 19514 ft | 456 kts | 298° |
| 2026-04-20 18:13 | 3.89339 | 9.93875 | 19285 ft | 450 kts | 298° |
| 2026-04-20 18:13 | 3.90768 | 9.91095 | 19059 ft | 449 kts | 298° |
| 2026-04-20 18:13 | 3.92195 | 9.88315 | 18836 ft | 449 kts | 298° |
| 2026-04-20 18:14 | 3.93624 | 9.85535 | 18617 ft | 449 kts | 298° |
| 2026-04-20 18:14 | 3.95045 | 9.82769 | 18099 ft | 445 kts | 298° |
| 2026-04-20 18:14 | 3.96448 | 9.80038 | 17451 ft | 439 kts | 298° |
| 2026-04-20 18:14 | 3.97833 | 9.77338 | 16871 ft | 432 kts | 297° |
| 2026-04-20 18:15 | 3.98816 | 9.74528 | 16280 ft | 428 kts | 279° |
| 2026-04-20 18:15 | 3.98882 | 9.71566 | 15519 ft | 428 kts | 261° |
| 2026-04-20 18:15 | 3.98268 | 9.68670 | 14936 ft | 424 kts | 256° |
| 2026-04-20 18:15 | 3.97600 | 9.65804 | 14352 ft | 420 kts | 256° |
| 2026-04-20 18:16 | 3.96938 | 9.62963 | 13801 ft | 416 kts | 256° |
| 2026-04-20 18:16 | 3.96292 | 9.60149 | 13223 ft | 413 kts | 256° |
| 2026-04-20 18:16 | 3.95662 | 9.57358 | 12668 ft | 409 kts | 256° |
| 2026-04-20 18:16 | 3.95045 | 9.54595 | 12134 ft | 405 kts | 256° |
| 2026-04-20 18:17 | 3.94439 | 9.51855 | 11618 ft | 401 kts | 257° |
| 2026-04-20 18:17 | 3.93840 | 9.49142 | 11085 ft | 397 kts | 257° |
| 2026-04-20 18:17 | 3.93247 | 9.46451 | 10619 ft | 393 kts | 257° |
| 2026-04-20 18:17 | 3.92668 | 9.43822 | 10421 ft | 381 kts | 257° |
| 2026-04-20 18:18 | 3.92106 | 9.41268 | 10252 ft | 370 kts | 257° |
| 2026-04-20 18:18 | 3.91560 | 9.38790 | 10098 ft | 359 kts | 257° |
| 2026-04-20 18:18 | 3.91038 | 9.36416 | 9963 ft | 347 kts | 257° |
| 2026-04-20 18:18 | 3.90532 | 9.34120 | 9842 ft | 329 kts | 257° |
| 2026-04-20 18:19 | 3.90051 | 9.31937 | 9642 ft | 315 kts | 257° |
| 2026-04-20 18:19 | 3.89582 | 9.29811 | 9202 ft | 311 kts | 257° |
| 2026-04-20 18:19 | 3.89117 | 9.27703 | 8762 ft | 308 kts | 257° |
| 2026-04-20 18:19 | 3.88658 | 9.25622 | 8341 ft | 304 kts | 257° |
| 2026-04-20 18:20 | 3.88204 | 9.23567 | 7922 ft | 300 kts | 257° |
| 2026-04-20 18:20 | 3.87757 | 9.21538 | 7522 ft | 296 kts | 257° |
| 2026-04-20 18:20 | 3.87316 | 9.19538 | 7118 ft | 293 kts | 257° |
| 2026-04-20 18:20 | 3.86880 | 9.17560 | 6734 ft | 289 kts | 257° |
| 2026-04-20 18:21 | 3.86448 | 9.15605 | 6352 ft | 286 kts | 257° |
| 2026-04-20 18:21 | 3.86027 | 9.13704 | 6172 ft | 274 kts | 257° |
| 2026-04-20 18:21 | 3.85635 | 9.11867 | 5925 ft | 266 kts | 262° |
| 2026-04-20 18:21 | 3.85764 | 9.10050 | 5551 ft | 262 kts | 285° |
| 2026-04-20 18:22 | 3.86202 | 9.08317 | 5304 ft | 254 kts | 284° |
| 2026-04-20 18:22 | 3.86629 | 9.06600 | 4914 ft | 253 kts | 284° |
| 2026-04-20 18:22 | 3.87032 | 9.04888 | 4533 ft | 252 kts | 279° |
| 2026-04-20 18:22 | 3.87250 | 9.03158 | 4205 ft | 248 kts | 276° |
| 2026-04-20 18:23 | 3.87443 | 9.01456 | 3910 ft | 243 kts | 276° |
| 2026-04-20 18:23 | 3.87636 | 8.99794 | 3642 ft | 238 kts | 276° |
| 2026-04-20 18:23 | 3.87826 | 8.98171 | 3377 ft | 232 kts | 276° |
| 2026-04-20 18:23 | 3.88012 | 8.96587 | 3103 ft | 226 kts | 276° |
| 2026-04-20 18:24 | 3.88192 | 8.95059 | 2822 ft | 222 kts | 277° |
| 2026-04-20 18:24 | 3.88507 | 8.93542 | 2571 ft | 218 kts | 283° |
| 2026-04-20 18:24 | 3.88836 | 8.92092 | 2309 ft | 216 kts | 274° |
| 2026-04-20 18:24 | 3.88903 | 8.90587 | 2171 ft | 220 kts | 271° |
| 2026-04-20 18:25 | 3.88916 | 8.89072 | 2152 ft | 213 kts | 269° |
| 2026-04-20 18:25 | 3.88911 | 8.87617 | 2128 ft | 205 kts | 270° |
| 2026-04-20 18:25 | 3.88900 | 8.86202 | 2108 ft | 202 kts | 270° |
| 2026-04-20 18:25 | 3.88885 | 8.84800 | 2127 ft | 202 kts | 269° |
| 2026-04-20 18:26 | 3.88814 | 8.83391 | 2095 ft | 202 kts | 256° |
| 2026-04-20 18:26 | 3.88075 | 8.82242 | 2109 ft | 195 kts | 225° |
| 2026-04-20 18:26 | 3.87128 | 8.81315 | 2113 ft | 187 kts | 227° |
| 2026-04-20 18:26 | 3.86216 | 8.80461 | 2079 ft | 170 kts | 225° |
| 2026-04-20 18:27 | 3.85377 | 8.79707 | 2083 ft | 155 kts | 225° |
| 2026-04-20 18:27 | 3.84572 | 8.78982 | 2093 ft | 159 kts | 223° |
| 2026-04-20 18:27 | 3.83743 | 8.78238 | 1961 ft | 165 kts | 225° |
| 2026-04-20 18:27 | 3.82907 | 8.77488 | 1777 ft | 160 kts | 225° |
| 2026-04-20 18:28 | 3.82088 | 8.76752 | 1573 ft | 155 kts | 224° |
| 2026-04-20 18:28 | 3.81314 | 8.76057 | 1413 ft | 145 kts | 224° |
| 2026-04-20 18:28 | 3.80543 | 8.75364 | 1183 ft | 149 kts | 223° |
| 2026-04-20 18:28 | 3.79775 | 8.74674 | 972 ft | 147 kts | 223° |
| 2026-04-20 18:29 | 3.79018 | 8.73995 | 798 ft | 143 kts | 225° |
| 2026-04-20 18:29 | 3.78290 | 8.73341 | 599 ft | 136 kts | 224° |
| 2026-04-20 18:29 | 3.77573 | 8.72695 | 390 ft | 143 kts | 222° |
| 2026-04-20 18:29 | 3.76831 | 8.72031 | 195 ft | 145 kts | 222° |
| 2026-04-20 18:30 | 3.76110 | 8.71396 | 54 ft | 125 kts | 221° |
| 2026-04-20 18:30 | 3.75576 | 8.70919 | 67 ft | 81 kts | 222° |
| 2026-04-20 18:30 | 3.75268 | 8.70646 | 75 ft | 37 kts | 222° |
| 2026-04-20 18:30 | 3.75098 | 8.70494 | 77 ft | 31 kts | 221° |
| 2026-04-20 18:31 | 3.74976 | 8.70404 | 73 ft | 8 kts | 184° |
| 2026-04-20 18:31 | 3.74933 | 8.70429 | 74 ft | 0 kts | 133° |
| 2026-04-20 18:31 | 3.74933 | 8.70430 | 74 ft | 1 kts | 133° |
| 2026-04-20 18:32 | 3.74923 | 8.70440 | 79 ft | 3 kts | 132° |
| 2026-04-20 18:32 | 3.74904 | 8.70461 | 79 ft | 5 kts | 131° |
| 2026-04-20 18:32 | 3.74883 | 8.70487 | 79 ft | 4 kts | 129° |
| 2026-04-20 18:32 | 3.74861 | 8.70512 | 81 ft | 6 kts | 131° |
| 2026-04-20 18:33 | 3.74846 | 8.70529 | 81 ft | 0 kts | 130° |
| 2026-04-20 18:33 | 3.74840 | 8.70536 | 79 ft | 2 kts | 132° |
| 2026-04-20 18:33 | 3.74821 | 8.70555 | 79 ft | 6 kts | 136° |
| 2026-04-20 18:33 | 3.74816 | 8.70597 | 79 ft | 8 kts | 55° |
| 2026-04-20 18:34 | 3.74869 | 8.70647 | 77 ft | 13 kts | 40° |
| 2026-04-20 18:34 | 3.74949 | 8.70714 | 77 ft | 17 kts | 40° |
| 2026-04-20 18:34 | 3.75042 | 8.70791 | 75 ft | 18 kts | 40° |
| 2026-04-20 18:34 | 3.75130 | 8.70868 | 73 ft | 14 kts | 53° |
| 2026-04-20 18:35 | 3.75108 | 8.70926 | 66 ft | 5 kts | 139° |
| 2026-04-20 18:35 | 3.75092 | 8.70940 | 69 ft | 0 kts | 137° |